Terminal Aerodrome Forecast
Issued by NWS Cleveland, OH

Home | Current Version | Previous Version | Text Only | Print | Product List | Glossary On
Versions: 1 2 3 4 5 6 7 8 9 10 11 12 13 14 15 16
263
FTUS41 KCLE 280530
TAFMFD
TAF
KMFD 280530Z 2806/0106 14008KT P6SM BKN150
     FM281200 16008KT 6SM -SHRA OVC050
     FM281400 16012KT 4SM -SHRA BR OVC025
     FM281700 18015G22KT P6SM VCSH OVC015
     FM010400 20015G25KT 4SM -RA BR VCTS OVC015CB=

USA.gov is the U.S. government's official web portal to all federal, state and local government web resources and services.